createdAt,value
2023-01-07T00:00:11.299Z,10.60
2023-01-07T00:02:58.218Z,10.60
2023-01-07T00:05:45.045Z,10.60
2023-01-07T00:08:32.500Z,10.60
2023-01-07T00:11:21.137Z,10.60
2023-01-07T00:14:09.630Z,10.60
2023-01-07T00:16:57.385Z,10.60
2023-01-07T00:19:43.742Z,10.60
2023-01-07T00:22:30.266Z,10.60
2023-01-07T00:25:16.750Z,10.60
2023-01-07T00:28:03.382Z,10.60
2023-01-07T00:30:49.720Z,10.60
2023-01-07T00:33:44.478Z,10.60
2023-01-07T00:36:32.433Z,10.60
2023-01-07T00:39:20.821Z,10.60
2023-01-07T00:42:25.047Z,10.60
2023-01-07T00:45:12.518Z,10.60
2023-01-07T00:47:59.614Z,10.60
2023-01-07T00:50:49.728Z,10.60
2023-01-07T00:53:36.452Z,10.60
2023-01-07T00:56:22.882Z,10.60
2023-01-07T00:59:09.301Z,10.60
2023-01-07T01:01:55.893Z,10.60
2023-01-07T01:04:42.826Z,10.60
2023-01-07T01:07:30.488Z,10.60
2023-01-07T01:10:19.082Z,10.60
2023-01-07T01:13:05.837Z,10.60
2023-01-07T01:15:52.302Z,10.60
2023-01-07T01:18:39.212Z,10.70
2023-01-07T01:21:25.523Z,10.70
2023-01-07T01:24:13.257Z,10.70
2023-01-07T01:26:59.676Z,10.80
2023-01-07T01:29:46.153Z,10.80
2023-01-07T01:32:32.796Z,10.80
2023-01-07T01:35:19.103Z,10.80
2023-01-07T01:38:05.458Z,10.80
2023-01-07T01:40:54.064Z,10.80
2023-01-07T01:43:42.289Z,10.80
2023-01-07T01:46:35.178Z,10.90
2023-01-07T01:49:25.561Z,10.90
2023-01-07T01:52:16.791Z,10.80
2023-01-07T01:55:06.100Z,10.80
2023-01-07T01:57:57.292Z,10.80
2023-01-07T02:00:44.473Z,10.80
2023-01-07T02:03:34.341Z,10.80
2023-01-07T02:06:25.266Z,10.80
2023-01-07T02:09:12.804Z,10.80
2023-01-07T02:12:08.362Z,10.80
2023-01-07T02:15:08.093Z,10.80
2023-01-07T02:18:13.323Z,10.80
2023-01-07T02:21:13.337Z,10.80
2023-01-07T02:24:33.093Z,10.80
2023-01-07T02:27:27.709Z,10.80
2023-01-07T02:31:01.418Z,10.80
2023-01-07T02:33:55.483Z,10.80
2023-01-07T02:36:52.162Z,10.90
2023-01-07T02:39:49.866Z,10.90
2023-01-07T02:42:44.366Z,10.90
2023-01-07T02:45:33.166Z,10.90
2023-01-07T02:48:22.610Z,10.90
2023-01-07T02:51:10.244Z,11.00
2023-01-07T02:53:56.768Z,11.00
2023-01-07T02:57:02.992Z,11.00
2023-01-07T03:00:08.072Z,11.00
2023-01-07T03:03:22.119Z,11.00
2023-01-07T03:06:25.176Z,11.00
2023-01-07T03:09:17.223Z,11.10
2023-01-07T03:12:13.571Z,11.10
2023-01-07T03:15:08.714Z,11.10
2023-01-07T03:18:01.336Z,11.70
2023-01-07T03:20:51.646Z,11.00
2023-01-07T03:23:45.416Z,11.00
2023-01-07T03:26:34.437Z,11.10
2023-01-07T03:29:22.125Z,11.10
2023-01-07T03:32:13.573Z,11.10
2023-01-07T03:35:00.151Z,11.10
2023-01-07T03:37:47.913Z,11.00
2023-01-07T03:40:36.078Z,11.00
2023-01-07T03:43:23.174Z,11.10
2023-01-07T03:46:09.632Z,11.00
2023-01-07T03:48:56.298Z,11.00
2023-01-07T03:51:43.025Z,11.00
2023-01-07T03:54:29.495Z,11.10
2023-01-07T03:57:17.218Z,11.10
2023-01-07T04:00:03.746Z,11.10
2023-01-07T04:02:50.639Z,11.10
2023-01-07T04:05:36.978Z,11.00
2023-01-07T04:08:23.456Z,11.00
2023-01-07T04:11:09.809Z,11.00
2023-01-07T04:14:00.716Z,11.00
2023-01-07T04:16:47.559Z,11.00
2023-01-07T04:19:34.468Z,11.00
2023-01-07T04:22:20.984Z,11.00
2023-01-07T04:25:08.351Z,11.00
2023-01-07T04:27:54.742Z,11.00
2023-01-07T04:30:42.589Z,11.00
2023-01-07T04:33:29.351Z,11.00
2023-01-07T04:36:16.040Z,11.00
2023-01-07T04:39:03.217Z,11.00
2023-01-07T04:41:49.730Z,11.00
2023-01-07T04:44:36.132Z,11.00
2023-01-07T04:47:23.932Z,11.00
2023-01-07T04:50:11.266Z,11.10
2023-01-07T04:52:57.843Z,11.10
2023-01-07T04:55:46.292Z,11.10
2023-01-07T04:58:33.595Z,11.10
2023-01-07T05:01:20.049Z,11.10
2023-01-07T05:04:08.368Z,11.10
2023-01-07T05:06:55.306Z,11.10
2023-01-07T05:09:41.873Z,11.10
2023-01-07T05:12:28.339Z,11.10
2023-01-07T05:15:14.876Z,11.00
2023-01-07T05:18:01.209Z,11.10
2023-01-07T05:20:49.179Z,11.10
2023-01-07T05:23:35.569Z,11.10
2023-01-07T05:26:21.905Z,11.10
2023-01-07T05:29:08.206Z,11.00
2023-01-07T05:31:54.549Z,11.10
2023-01-07T05:34:40.945Z,11.10
2023-01-07T05:37:28.570Z,11.10
2023-01-07T05:40:15.087Z,11.10
2023-01-07T05:43:02.034Z,11.10
2023-01-07T05:45:48.671Z,11.10
2023-01-07T05:48:35.284Z,11.10
2023-01-07T05:51:21.760Z,11.10
2023-01-07T05:54:09.522Z,11.10
2023-01-07T05:56:55.876Z,11.10
2023-01-07T05:59:42.248Z,11.10
2023-01-07T06:02:28.596Z,11.10
2023-01-07T06:05:14.918Z,11.00
2023-01-07T06:08:01.170Z,11.00
2023-01-07T06:10:48.956Z,11.00
2023-01-07T06:13:36.066Z,10.90
2023-01-07T06:16:22.467Z,10.90
2023-01-07T06:19:08.721Z,10.90
2023-01-07T06:21:55.062Z,10.90
2023-01-07T06:24:41.502Z,10.80
2023-01-07T06:27:29.248Z,10.80
2023-01-07T06:30:15.734Z,10.70
2023-01-07T06:33:02.302Z,10.60
2023-01-07T06:35:48.973Z,10.70
2023-01-07T06:38:36.055Z,10.60
2023-01-07T06:41:22.781Z,10.60
2023-01-07T06:44:10.421Z,10.60
2023-01-07T06:46:57.223Z,10.60
2023-01-07T06:49:43.600Z,10.60
2023-01-07T06:52:30.038Z,10.60
2023-01-07T06:55:16.489Z,10.60
2023-01-07T06:58:02.901Z,10.60
2023-01-07T07:00:50.806Z,10.60
2023-01-07T07:03:37.664Z,10.60
2023-01-07T07:06:24.155Z,10.60
2023-01-07T07:09:10.615Z,10.60
2023-01-07T07:11:57.076Z,10.60
2023-01-07T07:14:44.075Z,10.60
2023-01-07T07:17:31.868Z,10.60
2023-01-07T07:20:18.584Z,10.60
2023-01-07T07:23:05.356Z,10.50
2023-01-07T07:25:51.709Z,10.50
2023-01-07T07:28:38.127Z,10.50
2023-01-07T07:31:24.541Z,10.50
2023-01-07T07:34:12.991Z,10.50
2023-01-07T07:36:59.673Z,10.50
2023-01-07T07:39:46.063Z,10.50
2023-01-07T07:42:32.983Z,10.50
2023-01-07T07:45:39.635Z,10.50
2023-01-07T07:48:25.857Z,10.50
2023-01-07T07:51:13.716Z,10.50
2023-01-07T07:54:00.340Z,10.40
2023-01-07T07:56:46.785Z,10.40
2023-01-07T07:59:33.174Z,10.40
2023-01-07T08:02:20.160Z,10.50
2023-01-07T08:05:08.240Z,10.50
2023-01-07T08:07:57.662Z,10.50
2023-01-07T08:10:44.209Z,10.50
2023-01-07T08:13:31.565Z,10.50
2023-01-07T08:16:17.989Z,10.60
2023-01-07T08:19:04.825Z,10.50
2023-01-07T08:21:52.360Z,10.50
2023-01-07T08:24:40.219Z,10.50
2023-01-07T08:27:27.815Z,10.50
2023-01-07T08:30:14.603Z,10.50
2023-01-07T08:33:04.063Z,10.50
2023-01-07T08:35:50.489Z,10.50
2023-01-07T08:38:37.020Z,10.50
2023-01-07T08:41:25.854Z,10.50
2023-01-07T08:44:12.280Z,10.50
2023-01-07T08:46:58.710Z,10.50
2023-01-07T08:49:45.602Z,10.50
2023-01-07T08:52:31.941Z,10.60
2023-01-07T08:55:18.620Z,10.60
2023-01-07T08:58:06.627Z,10.60
2023-01-07T09:00:53.446Z,10.60
2023-01-07T09:03:40.076Z,10.60
2023-01-07T09:06:26.599Z,10.60
2023-01-07T09:09:15.042Z,10.60
2023-01-07T09:12:01.760Z,10.70
2023-01-07T09:14:49.605Z,10.70
2023-01-07T09:17:36.047Z,10.70
2023-01-07T09:20:22.374Z,10.80
2023-01-07T09:23:08.901Z,10.90
2023-01-07T09:25:55.202Z,10.90
2023-01-07T09:28:41.641Z,11.00
2023-01-07T09:31:29.859Z,11.00
2023-01-07T09:34:16.734Z,11.00
2023-01-07T09:37:03.101Z,11.10
2023-01-07T09:39:49.550Z,11.10
2023-01-07T09:42:43.229Z,11.10
2023-01-07T09:45:33.586Z,11.10
2023-01-07T09:48:25.777Z,11.10
2023-01-07T09:51:18.630Z,11.20
2023-01-07T09:54:10.050Z,11.20
2023-01-07T09:56:56.610Z,11.20
2023-01-07T09:59:42.960Z,11.30
2023-01-07T10:02:40.290Z,11.30
2023-01-07T10:05:35.635Z,11.30
2023-01-07T10:08:32.062Z,11.40
2023-01-07T10:11:31.710Z,11.40
2023-01-07T10:14:44.286Z,11.40
2023-01-07T10:17:44.172Z,11.50
2023-01-07T10:20:39.184Z,11.40
2023-01-07T10:23:30.133Z,11.40
2023-01-07T10:26:23.694Z,11.40
2023-01-07T10:29:14.620Z,11.40
2023-01-07T10:32:08.461Z,11.50
2023-01-07T10:34:59.385Z,11.50
2023-01-07T10:37:47.248Z,11.50
2023-01-07T10:40:42.828Z,11.50
2023-01-07T10:43:42.539Z,11.50
2023-01-07T10:46:47.987Z,11.60
2023-01-07T10:49:54.625Z,11.50
2023-01-07T10:52:51.630Z,11.50
2023-01-07T10:55:50.054Z,11.60
2023-01-07T10:58:41.432Z,11.60
2023-01-07T11:01:30.716Z,11.60
2023-01-07T11:04:18.571Z,11.60
2023-01-07T11:07:08.146Z,11.60
2023-01-07T11:09:57.193Z,11.60
2023-01-07T11:12:48.237Z,11.60
2023-01-07T11:15:38.051Z,11.60
2023-01-07T11:18:29.449Z,11.60
2023-01-07T11:21:42.879Z,11.70
2023-01-07T11:24:32.951Z,11.70
2023-01-07T11:27:24.426Z,11.70
2023-01-07T11:30:24.140Z,11.60
2023-01-07T11:33:21.061Z,11.60
2023-01-07T11:36:08.707Z,11.70
2023-01-07T11:39:11.314Z,11.70
2023-01-07T11:42:00.227Z,11.70
2023-01-07T11:44:48.498Z,11.80
2023-01-07T11:47:35.516Z,11.80
2023-01-07T11:50:34.605Z,11.80
2023-01-07T11:53:32.942Z,11.80
2023-01-07T11:56:26.812Z,11.90
2023-01-07T11:59:27.651Z,11.90
2023-01-07T12:02:27.658Z,11.90
2023-01-07T12:05:19.611Z,11.80
2023-01-07T12:08:07.729Z,11.80
2023-01-07T12:10:59.231Z,11.90
2023-01-07T12:13:50.148Z,11.90
2023-01-07T12:16:37.229Z,11.90
2023-01-07T12:19:40.666Z,11.90
2023-01-07T12:22:37.112Z,11.90
2023-01-07T12:25:30.143Z,11.90
2023-01-07T12:28:19.651Z,11.90
2023-01-07T12:31:19.392Z,11.90
2023-01-07T12:34:10.679Z,11.90
2023-01-07T12:37:03.213Z,11.90
2023-01-07T12:39:56.813Z,11.90
2023-01-07T12:42:50.480Z,11.80
2023-01-07T12:45:43.660Z,11.90
2023-01-07T12:48:37.399Z,11.90
2023-01-07T12:51:27.549Z,11.80
2023-01-07T12:54:19.202Z,11.70
2023-01-07T12:57:12.191Z,11.70
2023-01-07T13:00:06.062Z,11.70
2023-01-07T13:02:58.077Z,11.70
2023-01-07T13:05:52.933Z,11.70
2023-01-07T13:08:44.717Z,11.70
2023-01-07T13:11:56.018Z,11.70
2023-01-07T13:14:45.235Z,11.80
2023-01-07T13:17:33.177Z,11.70
2023-01-07T13:20:36.381Z,11.70
2023-01-07T13:23:32.385Z,11.80
2023-01-07T13:26:32.657Z,11.70
2023-01-07T13:29:36.314Z,11.80
2023-01-07T13:32:45.563Z,11.80
2023-01-07T13:36:04.503Z,11.80
2023-01-07T13:39:20.992Z,11.80
2023-01-07T13:42:20.252Z,11.80
2023-01-07T13:45:14.310Z,11.80
2023-01-07T13:48:05.352Z,11.80
2023-01-07T13:50:58.625Z,11.80
2023-01-07T13:53:47.605Z,11.80
2023-01-07T13:56:39.575Z,11.70
2023-01-07T13:59:30.875Z,11.80
2023-01-07T14:02:22.213Z,11.80
2023-01-07T14:05:24.521Z,11.80
2023-01-07T14:08:11.357Z,11.80
2023-01-07T14:10:57.778Z,11.80
2023-01-07T14:13:52.631Z,11.80
2023-01-07T14:16:43.603Z,11.70
2023-01-07T14:19:40.269Z,11.80
2023-01-07T14:22:35.521Z,11.70
2023-01-07T14:25:44.377Z,11.70
2023-01-07T14:28:57.002Z,11.80
2023-01-07T14:31:43.349Z,11.70
2023-01-07T14:34:30.963Z,11.70
2023-01-07T14:37:17.978Z,11.60
2023-01-07T14:40:38.003Z,11.60
2023-01-07T14:43:47.700Z,11.50
2023-01-07T14:46:54.056Z,11.50
2023-01-07T14:50:18.966Z,11.50
2023-01-07T14:53:34.172Z,11.40
2023-01-07T14:56:35.417Z,11.40
2023-01-07T14:59:54.181Z,11.30
2023-01-07T15:03:14.066Z,11.30
2023-01-07T15:06:20.554Z,11.30
2023-01-07T15:09:28.990Z,11.30
2023-01-07T15:12:37.893Z,11.20
2023-01-07T15:15:45.026Z,11.20
2023-01-07T15:18:33.803Z,11.20
2023-01-07T15:21:34.382Z,11.20
2023-01-07T15:24:29.470Z,11.20
2023-01-07T15:27:20.672Z,11.10
2023-01-07T15:30:18.582Z,11.10
2023-01-07T15:33:17.072Z,11.00
2023-01-07T15:36:06.229Z,11.00
2023-01-07T15:38:56.253Z,10.90
2023-01-07T15:41:43.419Z,10.90
2023-01-07T15:44:40.357Z,10.90
2023-01-07T15:47:41.290Z,10.80
2023-01-07T15:50:30.329Z,10.90
2023-01-07T15:53:22.705Z,10.80
2023-01-07T15:56:15.915Z,10.80
2023-01-07T15:59:02.431Z,10.80
2023-01-07T16:01:50.798Z,10.80
2023-01-07T16:04:41.969Z,10.70
2023-01-07T16:07:30.424Z,10.70
2023-01-07T16:10:20.791Z,10.70
2023-01-07T16:13:19.004Z,10.60
2023-01-07T16:16:06.871Z,10.60
2023-01-07T16:18:56.977Z,10.60
2023-01-07T16:21:50.949Z,10.60
2023-01-07T16:24:37.309Z,10.60
2023-01-07T16:27:29.885Z,10.60
2023-01-07T16:30:18.511Z,10.50
2023-01-07T16:33:06.114Z,10.50
2023-01-07T16:35:55.346Z,10.50
2023-01-07T16:38:42.847Z,10.50
2023-01-07T16:41:30.812Z,10.50
2023-01-07T16:44:59.093Z,10.50
2023-01-07T16:48:01.541Z,10.40
2023-01-07T16:50:49.837Z,10.40
2023-01-07T16:53:36.604Z,10.40
2023-01-07T16:56:23.238Z,10.30
2023-01-07T16:59:16.502Z,10.30
2023-01-07T17:02:13.109Z,10.30
2023-01-07T17:05:13.508Z,10.30
2023-01-07T17:08:05.142Z,10.30
2023-01-07T17:10:59.525Z,10.20
2023-01-07T17:13:46.076Z,10.30
2023-01-07T17:16:33.411Z,10.30
2023-01-07T17:19:25.909Z,10.20
2023-01-07T17:22:33.458Z,10.20
2023-01-07T17:25:25.310Z,10.20
2023-01-07T17:28:19.241Z,10.20
2023-01-07T17:31:08.281Z,10.20
2023-01-07T17:33:55.738Z,10.20
2023-01-07T17:36:42.262Z,10.20
2023-01-07T17:39:30.200Z,10.20
2023-01-07T17:42:51.657Z,10.20
2023-01-07T17:45:38.355Z,10.10
2023-01-07T17:48:25.286Z,10.20
2023-01-07T17:51:14.050Z,10.20
2023-01-07T17:54:00.643Z,10.20
2023-01-07T17:56:48.519Z,10.10
2023-01-07T17:59:35.317Z,10.10
2023-01-07T18:02:26.751Z,10.10
2023-01-07T18:05:17.270Z,10.10
2023-01-07T18:08:03.770Z,10.10
2023-01-07T18:11:09.643Z,10.10
2023-01-07T18:13:57.598Z,10.00
2023-01-07T18:16:44.099Z,10.00
2023-01-07T18:19:30.960Z,10.00
2023-01-07T18:22:17.400Z,10.00
2023-01-07T18:25:04.057Z,10.00
2023-01-07T18:27:53.269Z,10.00
2023-01-07T18:30:41.255Z,10.00
2023-01-07T18:33:27.901Z,10.00
2023-01-07T18:36:14.500Z,10.00
2023-01-07T18:39:00.989Z,10.00
2023-01-07T18:41:50.023Z,9.90
2023-01-07T18:44:36.807Z,9.90
2023-01-07T18:47:24.839Z,9.90
2023-01-07T18:50:11.411Z,9.90
2023-01-07T18:52:58.218Z,10.00
2023-01-07T18:55:45.860Z,10.00
2023-01-07T18:58:32.552Z,10.00
2023-01-07T19:01:19.145Z,10.00
2023-01-07T19:04:07.537Z,10.00
2023-01-07T19:06:54.753Z,10.00
2023-01-07T19:09:41.118Z,10.00
2023-01-07T19:12:27.872Z,10.00
2023-01-07T19:15:14.410Z,10.00
2023-01-07T19:18:00.744Z,10.00
2023-01-07T19:20:48.672Z,10.00
2023-01-07T19:23:35.632Z,10.00
2023-01-07T19:26:22.553Z,10.00
2023-01-07T19:29:09.536Z,10.00
2023-01-07T19:31:56.299Z,10.00
2023-01-07T19:34:43.188Z,10.00
2023-01-07T19:37:31.133Z,10.00
2023-01-07T19:40:17.977Z,10.00
2023-01-07T19:43:04.216Z,10.00
2023-01-07T19:45:54.350Z,10.00
2023-01-07T19:48:41.495Z,10.00
2023-01-07T19:51:28.033Z,10.00
2023-01-07T19:54:16.582Z,10.00
2023-01-07T19:57:02.954Z,10.00
2023-01-07T19:59:49.406Z,9.90
2023-01-07T20:02:35.764Z,9.90
2023-01-07T20:05:22.184Z,9.90
2023-01-07T20:08:08.875Z,9.90
2023-01-07T20:10:58.948Z,9.90
2023-01-07T20:13:47.332Z,9.90
2023-01-07T20:16:35.846Z,9.90
2023-01-07T20:19:23.411Z,9.90
2023-01-07T20:22:10.986Z,9.90
2023-01-07T20:24:57.645Z,9.80
2023-01-07T20:27:45.389Z,9.80
2023-01-07T20:30:32.241Z,9.90
2023-01-07T20:33:18.645Z,9.80
2023-01-07T20:36:07.707Z,9.80
2023-01-07T20:38:54.481Z,9.70
2023-01-07T20:41:41.174Z,9.70
2023-01-07T20:44:28.968Z,9.70
2023-01-07T20:47:15.832Z,9.70
2023-01-07T20:50:02.680Z,9.70
2023-01-07T20:52:49.018Z,9.60
2023-01-07T20:55:36.976Z,9.60
2023-01-07T20:58:23.857Z,9.60
2023-01-07T21:01:14.352Z,9.50
2023-01-07T21:04:02.181Z,9.50
2023-01-07T21:06:48.671Z,9.50
2023-01-07T21:09:35.228Z,9.50
2023-01-07T21:12:21.620Z,9.50
2023-01-07T21:15:09.849Z,9.50
2023-01-07T21:17:57.723Z,9.50
2023-01-07T21:20:44.633Z,9.50
2023-01-07T21:23:31.267Z,9.60
2023-01-07T21:26:18.725Z,9.60
2023-01-07T21:29:05.301Z,9.60
2023-01-07T21:31:53.519Z,9.70
2023-01-07T21:34:41.508Z,9.70
2023-01-07T21:37:29.345Z,9.70
2023-01-07T21:40:15.981Z,9.80
2023-01-07T21:43:02.323Z,9.70
2023-01-07T21:45:48.794Z,9.80
2023-01-07T21:48:35.936Z,9.80
2023-01-07T21:51:26.228Z,9.80
2023-01-07T21:54:12.983Z,9.90
2023-01-07T21:56:59.318Z,9.90
2023-01-07T21:59:45.732Z,9.90
2023-01-07T22:02:32.128Z,9.90
2023-01-07T22:05:18.687Z,9.90
2023-01-07T22:08:06.623Z,9.90
2023-01-07T22:10:53.207Z,9.90
2023-01-07T22:13:40.072Z,10.00
2023-01-07T22:16:28.301Z,10.00
2023-01-07T22:19:15.079Z,10.00
2023-01-07T22:22:01.794Z,10.00
2023-01-07T22:24:49.793Z,10.00
2023-01-07T22:27:36.369Z,10.10
2023-01-07T22:30:23.112Z,10.00
2023-01-07T22:33:09.838Z,10.10
2023-01-07T22:35:56.521Z,10.10
2023-01-07T22:38:43.365Z,10.10
2023-01-07T22:41:32.901Z,10.10
2023-01-07T22:44:23.564Z,10.10
2023-01-07T22:47:14.258Z,10.10
2023-01-07T22:50:03.718Z,10.10
2023-01-07T22:52:50.297Z,10.10
2023-01-07T22:55:37.291Z,10.10
2023-01-07T22:58:25.367Z,10.10
2023-01-07T23:01:14.399Z,10.20
2023-01-07T23:04:01.260Z,10.20
2023-01-07T23:06:48.049Z,10.20
2023-01-07T23:09:34.818Z,10.30
2023-01-07T23:12:21.429Z,10.30
2023-01-07T23:15:09.831Z,10.30
2023-01-07T23:17:56.575Z,10.30
2023-01-07T23:20:44.585Z,10.20
2023-01-07T23:23:31.759Z,10.20
2023-01-07T23:26:18.243Z,10.30
2023-01-07T23:29:04.975Z,10.20
2023-01-07T23:31:53.090Z,10.30
2023-01-07T23:34:40.176Z,10.20
2023-01-07T23:37:26.756Z,10.30
2023-01-07T23:40:14.206Z,10.20
2023-01-07T23:43:00.926Z,10.20
2023-01-07T23:45:47.465Z,10.20
2023-01-07T23:48:37.539Z,10.30
2023-01-07T23:51:23.889Z,10.20
2023-01-07T23:54:10.866Z,10.30
2023-01-07T23:56:57.109Z,10.30
2023-01-07T23:59:44.321Z,10.30
